Time;durP1;ratioP1;P1;durP2;ratioP2;P2;SDS_P1;SDS_P2;PMS_P1;PMS_P2;Temp;Humidity;BMP_temperature;BMP_pressure;BME280_temperature;BME280_humidity;BME280_pressure;Samples;Min_cycle;Max_cycle;Signal;HPM_P1;HPM_P2
2021/05/28 00:00:24;;;;;;;5.40;4.00;;;;;;;;;;1497460;39;20405;-65
2021/05/28 00:01:25;;;;;;;7.18;4.05;;;;;;;;;;1497468;39;20031;-65
2021/05/28 00:02:26;;;;;;;4.55;3.85;;;;;;;;;;1497363;39;20451;-65
2021/05/28 00:03:27;;;;;;;7.25;4.00;;;;;;;;;;1497448;39;20027;-64
2021/05/28 00:04:28;;;;;;;4.82;3.55;;;;;;;;;;1497290;39;20028;-65
2021/05/28 00:05:29;;;;;;;6.93;3.80;;;;;;;;;;1497311;39;20046;-65
2021/05/28 00:06:30;;;;;;;6.50;3.78;;;;;;;;;;1497366;39;20043;-64
2021/05/28 00:07:31;;;;;;;5.20;4.00;;;;;;;;;;1497406;39;20072;-64
2021/05/28 00:08:33;;;;;;;4.22;3.70;;;;;;;;;;1497250;39;20283;-64
2021/05/28 00:09:34;;;;;;;5.10;3.65;;;;;;;;;;1497314;39;20036;-65
2021/05/28 00:10:36;;;;;;;5.10;3.80;;;;;;;;;;1496789;39;20039;-65
2021/05/28 00:11:37;;;;;;;4.10;3.20;;;;;;;;;;1496703;39;20034;-64
2021/05/28 00:12:39;;;;;;;5.15;3.53;;;;;;;;;;1496756;39;20034;-64
2021/05/28 00:13:40;;;;;;;6.95;3.85;;;;;;;;;;1497303;39;20031;-64
2021/05/28 00:14:41;;;;;;;5.35;3.85;;;;;;;;;;1497240;39;20050;-64
2021/05/28 00:15:42;;;;;;;4.63;3.78;;;;;;;;;;1497429;39;20028;-64
2021/05/28 00:16:43;;;;;;;4.15;3.33;;;;;;;;;;1497253;39;20128;-65
2021/05/28 00:17:44;;;;;;;5.43;3.78;;;;;;;;;;1497337;39;20027;-64
2021/05/28 00:18:46;;;;;;;5.35;3.90;;;;;;;;;;1497418;39;20039;-64
2021/05/28 00:19:46;;;;;;;6.25;3.60;;;;;;;;;;1497576;39;20027;-64
2021/05/28 00:20:48;;;;;;;5.63;3.90;;;;;;;;;;1497473;39;20382;-64
2021/05/28 00:21:48;;;;;;;5.53;3.63;;;;;;;;;;1497233;39;20027;-63
2021/05/28 00:22:50;;;;;;;5.30;3.85;;;;;;;;;;1497569;39;20027;-64
2021/05/28 00:23:50;;;;;;;5.50;3.70;;;;;;;;;;1497435;39;20031;-65
2021/05/28 00:24:53;;;;;;;4.97;3.55;;;;;;;;;;1497254;39;20291;-64
2021/05/28 00:25:53;;;;;;;5.50;3.60;;;;;;;;;;1497182;39;20057;-64
2021/05/28 00:26:55;;;;;;;5.47;3.63;;;;;;;;;;1497231;39;20073;-65
2021/05/28 00:27:56;;;;;;;4.72;3.58;;;;;;;;;;1497397;39;20039;-64
2021/05/28 00:28:57;;;;;;;4.97;3.50;;;;;;;;;;1497321;39;20279;-64
2021/05/28 00:29:58;;;;;;;5.30;3.78;;;;;;;;;;1496841;39;20050;-64
2021/05/28 00:31:00;;;;;;;5.93;4.03;;;;;;;;;;1497290;39;20027;-65
2021/05/28 00:32:02;;;;;;;5.80;4.15;;;;;;;;;;1497182;39;20306;-64
2021/05/28 00:33:04;;;;;;;6.28;4.35;;;;;;;;;;1497521;39;20024;-64
2021/05/28 00:34:05;;;;;;;6.28;4.18;;;;;;;;;;1497419;39;20043;-64
2021/05/28 00:35:07;;;;;;;8.15;3.70;;;;;;;;;;1497354;39;20038;-64
2021/05/28 00:36:09;;;;;;;6.50;3.47;;;;;;;;;;1497181;39;20023;-64
2021/05/28 00:37:10;;;;;;;5.47;3.50;;;;;;;;;;1497209;39;20031;-64
2021/05/28 00:38:11;;;;;;;6.65;4.28;;;;;;;;;;1497468;39;20034;-64
2021/05/28 00:39:12;;;;;;;6.72;4.88;;;;;;;;;;1497209;39;20402;-65
2021/05/28 00:40:16;;;;;;;5.63;4.15;;;;;;;;;;1497134;39;20422;-64
2021/05/28 00:41:17;;;;;;;5.30;3.97;;;;;;;;;;1497203;39;20391;-64
2021/05/28 00:42:18;;;;;;;5.07;3.92;;;;;;;;;;1497279;39;20039;-64
2021/05/28 00:43:19;;;;;;;5.72;4.10;;;;;;;;;;1497218;39;20054;-64
2021/05/28 00:44:22;;;;;;;5.88;4.10;;;;;;;;;;1497129;39;20112;-64
2021/05/28 00:45:24;;;;;;;5.07;3.72;;;;;;;;;;1497348;39;20031;-65
2021/05/28 00:46:26;;;;;;;5.93;3.90;;;;;;;;;;1497331;39;20031;-64
2021/05/28 00:47:28;;;;;;;6.05;3.88;;;;;;;;;;1497416;39;20063;-65
2021/05/28 00:48:29;;;;;;;4.78;3.72;;;;;;;;;;1497194;39;20464;-64
2021/05/28 00:49:30;;;;;;;6.47;3.78;;;;;;;;;;1497164;39;20019;-64
2021/05/28 00:50:32;;;;;;;4.65;3.55;;;;;;;;;;1497162;39;20058;-65
2021/05/28 00:51:32;;;;;;;5.93;3.63;;;;;;;;;;1497153;39;20028;-64
2021/05/28 00:52:34;;;;;;;6.85;3.45;;;;;;;;;;1497165;39;20038;-64
2021/05/28 00:53:35;;;;;;;5.10;3.70;;;;;;;;;;1497305;39;20033;-64
2021/05/28 00:54:36;;;;;;;4.63;3.67;;;;;;;;;;1497314;39;20034;-65
2021/05/28 00:55:38;;;;;;;5.72;4.10;;;;;;;;;;1497096;39;20031;-64
2021/05/28 00:56:40;;;;;;;5.07;4.10;;;;;;;;;;1497136;39;20418;-64
2021/05/28 00:57:41;;;;;;;6.13;4.00;;;;;;;;;;1497364;39;20027;-64
2021/05/28 00:58:43;;;;;;;5.45;4.15;;;;;;;;;;1497188;39;20027;-64
2021/05/28 00:59:44;;;;;;;5.95;3.88;;;;;;;;;;1497264;39;20027;-64
2021/05/28 01:00:48;;;;;;;5.28;3.72;;;;;;;;;;1497334;39;20030;-65
2021/05/28 01:01:49;;;;;;;5.05;3.75;;;;;;;;;;1497257;39;20112;-64
2021/05/28 01:02:50;;;;;;;6.10;3.72;;;;;;;;;;1497281;39;20342;-64
2021/05/28 01:03:51;;;;;;;5.47;4.20;;;;;;;;;;1497314;39;20027;-65
2021/05/28 01:04:52;;;;;;;6.63;3.72;;;;;;;;;;1497243;39;20290;-65
2021/05/28 01:05:53;;;;;;;4.15;3.75;;;;;;;;;;1497178;39;20034;-65
2021/05/28 01:06:55;;;;;;;5.72;3.70;;;;;;;;;;1497196;39;20031;-64
2021/05/28 01:07:56;;;;;;;4.57;3.90;;;;;;;;;;1497319;39;20035;-65
2021/05/28 01:08:57;;;;;;;5.50;4.53;;;;;;;;;;1497141;39;20032;-64
2021/05/28 01:09:58;;;;;;;5.32;3.65;;;;;;;;;;1497291;39;20031;-65
2021/05/28 01:11:00;;;;;;;5.20;4.05;;;;;;;;;;1497307;39;20091;-64
2021/05/28 01:12:01;;;;;;;6.63;4.43;;;;;;;;;;1497026;39;20394;-64
2021/05/28 01:13:04;;;;;;;6.95;4.22;;;;;;;;;;1497321;39;20028;-64
2021/05/28 01:14:06;;;;;;;4.88;3.88;;;;;;;;;;1497168;39;20280;-64
2021/05/28 01:15:09;;;;;;;4.97;3.97;;;;;;;;;;1497280;39;20036;-64
2021/05/28 01:16:10;;;;;;;5.22;4.38;;;;;;;;;;1497273;39;20023;-64
2021/05/28 01:17:12;;;;;;;5.40;4.28;;;;;;;;;;1497219;39;20035;-64
2021/05/28 01:18:13;;;;;;;6.00;4.60;;;;;;;;;;1497127;39;20050;-64
2021/05/28 01:19:15;;;;;;;4.82;4.20;;;;;;;;;;1497248;39;20035;-64
2021/05/28 01:20:22;;;;;;;5.07;4.05;;;;;;;;;;1497091;39;20023;-64
2021/05/28 01:21:23;;;;;;;6.35;4.22;;;;;;;;;;1497102;39;20032;-64
2021/05/28 01:22:25;;;;;;;6.28;4.10;;;;;;;;;;1497213;39;20035;-64
2021/05/28 01:23:26;;;;;;;6.20;3.88;;;;;;;;;;1497069;39;20280;-65
2021/05/28 01:24:27;;;;;;;5.78;3.92;;;;;;;;;;1497064;39;20049;-64
2021/05/28 01:25:30;;;;;;;4.57;3.78;;;;;;;;;;1497118;39;20027;-64
2021/05/28 01:26:30;;;;;;;5.65;3.78;;;;;;;;;;1496985;39;20038;-64
2021/05/28 01:27:32;;;;;;;5.43;3.63;;;;;;;;;;1497263;39;20072;-64
2021/05/28 01:28:33;;;;;;;6.50;3.92;;;;;;;;;;1497062;39;20345;-64
2021/05/28 01:29:34;;;;;;;4.97;3.70;;;;;;;;;;1497051;39;20303;-64
2021/05/28 01:30:35;;;;;;;6.55;4.13;;;;;;;;;;1497233;39;20035;-65
2021/05/28 01:31:36;;;;;;;4.53;3.55;;;;;;;;;;1497226;39;20374;-64
2021/05/28 01:32:37;;;;;;;4.88;3.78;;;;;;;;;;1497262;39;20030;-64
2021/05/28 01:33:40;;;;;;;6.28;4.15;;;;;;;;;;1497087;39;20071;-64
2021/05/28 01:34:41;;;;;;;4.57;3.85;;;;;;;;;;1497184;39;20027;-64
2021/05/28 01:35:42;;;;;;;4.68;3.80;;;;;;;;;;1497214;39;20027;-65
2021/05/28 01:36:43;;;;;;;4.57;3.95;;;;;;;;;;1497210;39;20064;-65
2021/05/28 01:37:46;;;;;;;6.00;4.30;;;;;;;;;;1496516;39;20019;-65
2021/05/28 01:38:47;;;;;;;5.47;3.83;;;;;;;;;;1496745;39;20028;-64
2021/05/28 01:39:50;;;;;;;5.22;4.05;;;;;;;;;;1497209;39;20031;-65
2021/05/28 01:40:52;;;;;;;4.30;3.58;;;;;;;;;;1496844;39;20084;-65
2021/05/28 01:41:54;;;;;;;6.15;3.92;;;;;;;;;;1496944;39;20031;-64
2021/05/28 01:42:55;;;;;;;6.95;3.70;;;;;;;;;;1497141;39;20031;-64
2021/05/28 01:43:57;;;;;;;4.43;4.00;;;;;;;;;;1497027;39;20035;-64
2021/05/28 01:44:59;;;;;;;4.75;4.05;;;;;;;;;;1496979;39;20024;-64
2021/05/28 01:46:01;;;;;;;5.60;3.70;;;;;;;;;;1496970;39;20023;-64
2021/05/28 01:47:02;;;;;;;7.38;4.03;;;;;;;;;;1497020;39;20031;-64
2021/05/28 01:48:03;;;;;;;5.05;3.95;;;;;;;;;;1496981;39;20051;-64
2021/05/28 01:49:05;;;;;;;4.57;3.65;;;;;;;;;;1497177;39;20023;-65
2021/05/28 01:50:10;;;;;;;4.90;3.55;;;;;;;;;;1497027;39;20027;-65
2021/05/28 01:51:11;;;;;;;5.72;3.63;;;;;;;;;;1496464;39;20035;-64
2021/05/28 01:52:13;;;;;;;8.38;3.90;;;;;;;;;;1496470;39;20047;-64
2021/05/28 01:53:18;;;;;;;5.65;3.67;;;;;;;;;;1497144;39;20085;-64
2021/05/28 01:54:22;;;;;;;5.38;3.95;;;;;;;;;;1497301;39;20039;-64
2021/05/28 01:55:23;;;;;;;4.88;3.70;;;;;;;;;;1496992;39;20034;-64
2021/05/28 01:56:25;;;;;;;7.15;3.75;;;;;;;;;;1497185;39;20060;-65
2021/05/28 01:57:26;;;;;;;5.57;3.80;;;;;;;;;;1497174;39;20028;-65
2021/05/28 01:58:27;;;;;;;4.88;3.83;;;;;;;;;;1497245;39;20025;-64
2021/05/28 01:59:28;;;;;;;6.20;3.58;;;;;;;;;;1496986;39;20024;-64
2021/05/28 02:00:29;;;;;;;5.63;3.85;;;;;;;;;;1497034;39;20024;-64
2021/05/28 02:01:30;;;;;;;4.93;3.58;;;;;;;;;;1496903;39;20027;-64
2021/05/28 02:02:32;;;;;;;5.05;3.75;;;;;;;;;;1497169;39;20035;-63
2021/05/28 02:03:33;;;;;;;5.45;3.90;;;;;;;;;;1496972;39;20030;-64
2021/05/28 02:04:34;;;;;;;6.05;4.13;;;;;;;;;;1496962;39;20032;-64
2021/05/28 02:05:36;;;;;;;5.38;3.90;;;;;;;;;;1496950;39;20053;-64
2021/05/28 02:06:37;;;;;;;4.28;3.50;;;;;;;;;;1496442;39;20043;-64
2021/05/28 02:07:38;;;;;;;5.50;3.88;;;;;;;;;;1496478;39;20384;-65
2021/05/28 02:08:40;;;;;;;6.90;3.70;;;;;;;;;;1497162;39;20027;-65
2021/05/28 02:09:41;;;;;;;4.90;3.70;;;;;;;;;;1497135;39;20083;-65
2021/05/28 02:10:43;;;;;;;4.72;3.15;;;;;;;;;;1497020;39;20112;-65
2021/05/28 02:11:45;;;;;;;4.13;3.50;;;;;;;;;;1497115;39;20034;-64
2021/05/28 02:12:46;;;;;;;5.10;3.50;;;;;;;;;;1497033;39;20027;-64
2021/05/28 02:13:47;;;;;;;5.53;3.65;;;;;;;;;;1497092;39;20024;-64
2021/05/28 02:14:50;;;;;;;5.68;3.70;;;;;;;;;;1497277;39;20027;-64
2021/05/28 02:15:51;;;;;;;5.50;3.72;;;;;;;;;;1496970;39;20036;-64
2021/05/28 02:16:52;;;;;;;5.55;3.85;;;;;;;;;;1497013;39;20326;-64
2021/05/28 02:17:54;;;;;;;4.60;3.53;;;;;;;;;;1496912;39;20063;-64
2021/05/28 02:18:56;;;;;;;5.22;3.30;;;;;;;;;;1496956;39;20455;-64
2021/05/28 02:19:57;;;;;;;5.97;3.30;;;;;;;;;;1497075;39;20030;-64
2021/05/28 02:20:59;;;;;;;4.90;3.65;;;;;;;;;;1496893;39;20028;-65
2021/05/28 02:22:00;;;;;;;6.22;3.67;;;;;;;;;;1497079;39;20115;-64
2021/05/28 02:23:01;;;;;;;4.25;3.50;;;;;;;;;;1496914;39;20123;-64
2021/05/28 02:24:04;;;;;;;4.63;3.40;;;;;;;;;;1497064;39;20108;-64
2021/05/28 02:25:07;;;;;;;5.45;3.42;;;;;;;;;;1496942;39;20382;-64
2021/05/28 02:26:08;;;;;;;4.43;3.22;;;;;;;;;;1496840;39;20027;-64
2021/05/28 02:27:09;;;;;;;4.85;3.70;;;;;;;;;;1497080;39;20112;-64
2021/05/28 02:28:10;;;;;;;5.30;3.72;;;;;;;;;;1496884;39;20402;-64
2021/05/28 02:29:11;;;;;;;4.80;3.38;;;;;;;;;;1497088;39;20027;-64
2021/05/28 02:30:14;;;;;;;4.78;3.65;;;;;;;;;;1496990;39;20050;-64
2021/05/28 02:31:15;;;;;;;5.47;3.17;;;;;;;;;;1497030;39;20031;-64
2021/05/28 02:32:16;;;;;;;7.20;4.78;;;;;;;;;;1496987;39;20035;-64
2021/05/28 02:33:17;;;;;;;5.95;4.25;;;;;;;;;;1497139;39;20291;-64
2021/05/28 02:34:18;;;;;;;5.35;4.05;;;;;;;;;;1496857;39;20268;-64
2021/05/28 02:35:19;;;;;;;7.63;4.43;;;;;;;;;;1496815;39;20035;-64
2021/05/28 02:36:20;;;;;;;5.45;4.20;;;;;;;;;;1497017;39;20035;-64
2021/05/28 02:37:21;;;;;;;5.45;3.80;;;;;;;;;;1496845;39;20035;-64
2021/05/28 02:38:22;;;;;;;6.68;3.80;;;;;;;;;;1496883;39;20023;-64
2021/05/28 02:39:24;;;;;;;4.50;3.60;;;;;;;;;;1497029;39;20463;-64
2021/05/28 02:40:25;;;;;;;7.85;3.60;;;;;;;;;;1496906;39;20268;-64
2021/05/28 02:41:27;;;;;;;5.35;3.42;;;;;;;;;;1496882;39;20027;-64
2021/05/28 02:42:28;;;;;;;4.68;3.22;;;;;;;;;;1496835;39;20394;-64
2021/05/28 02:43:29;;;;;;;5.03;3.40;;;;;;;;;;1496824;39;20027;-64
2021/05/28 02:44:30;;;;;;;4.32;3.58;;;;;;;;;;1496983;39;20043;-64
2021/05/28 02:45:31;;;;;;;6.00;3.40;;;;;;;;;;1496842;39;20023;-64
2021/05/28 02:46:34;;;;;;;4.03;3.03;;;;;;;;;;1496745;39;20112;-65
2021/05/28 02:47:35;;;;;;;4.07;3.20;;;;;;;;;;1496816;39;20035;-64
2021/05/28 02:48:36;;;;;;;5.80;3.47;;;;;;;;;;1496800;39;20040;-64
2021/05/28 02:49:38;;;;;;;5.63;3.70;;;;;;;;;;1496970;39;20043;-64
2021/05/28 02:50:39;;;;;;;5.18;3.53;;;;;;;;;;1496805;39;20027;-64
2021/05/28 02:51:40;;;;;;;5.05;3.38;;;;;;;;;;1496762;39;20108;-64
2021/05/28 02:52:41;;;;;;;4.90;3.35;;;;;;;;;;1496869;39;20035;-64
2021/05/28 02:53:42;;;;;;;4.28;3.80;;;;;;;;;;1497559;39;20038;-64
2021/05/28 02:54:44;;;;;;;5.15;3.50;;;;;;;;;;1497454;39;20031;-64
2021/05/28 02:55:46;;;;;;;5.50;3.53;;;;;;;;;;1497626;39;20034;-64
2021/05/28 02:56:47;;;;;;;5.30;3.22;;;;;;;;;;1497478;39;20303;-64
2021/05/28 02:57:48;;;;;;;4.90;3.42;;;;;;;;;;1497724;39;20019;-64
2021/05/28 02:58:49;;;;;;;5.68;3.17;;;;;;;;;;1497631;39;20027;-64
2021/05/28 02:59:50;;;;;;;6.47;3.55;;;;;;;;;;1497641;39;20053;-64
2021/05/28 03:00:51;;;;;;;4.88;3.35;;;;;;;;;;1497468;39;20038;-64
2021/05/28 03:01:52;;;;;;;4.55;3.45;;;;;;;;;;1497583;39;20032;-63
2021/05/28 03:02:53;;;;;;;6.32;3.70;;;;;;;;;;1497655;39;20039;-64
2021/05/28 03:03:55;;;;;;;5.30;3.40;;;;;;;;;;1497683;39;20032;-64
2021/05/28 03:04:55;;;;;;;4.35;3.53;;;;;;;;;;1497454;39;20050;-64
2021/05/28 03:05:57;;;;;;;4.63;3.20;;;;;;;;;;1497435;39;20035;-65
2021/05/28 03:06:58;;;;;;;3.67;3.00;;;;;;;;;;1497604;39;20038;-64
2021/05/28 03:07:59;;;;;;;5.15;3.28;;;;;;;;;;1497716;39;20038;-64
2021/05/28 03:09:00;;;;;;;7.72;3.50;;;;;;;;;;1497628;39;20023;-64
2021/05/28 03:10:03;;;;;;;5.40;3.42;;;;;;;;;;1497488;39;20397;-64
2021/05/28 03:11:04;;;;;;;5.25;3.53;;;;;;;;;;1497439;39;20050;-64
2021/05/28 03:12:07;;;;;;;4.13;3.42;;;;;;;;;;1497348;39;20395;-64
2021/05/28 03:13:07;;;;;;;5.80;3.60;;;;;;;;;;1497584;39;20035;-64
2021/05/28 03:14:09;;;;;;;4.30;3.58;;;;;;;;;;1497581;39;20058;-64
2021/05/28 03:15:11;;;;;;;5.65;3.85;;;;;;;;;;1497403;39;20031;-65
2021/05/28 03:16:12;;;;;;;7.30;3.50;;;;;;;;;;1497580;39;20140;-64
2021/05/28 03:17:13;;;;;;;5.03;3.60;;;;;;;;;;1497607;39;20028;-64
2021/05/28 03:18:17;;;;;;;4.05;3.30;;;;;;;;;;1497466;39;20028;-64
2021/05/28 03:19:21;;;;;;;4.47;3.13;;;;;;;;;;1497542;39;20028;-64
2021/05/28 03:20:26;;;;;;;4.72;3.20;;;;;;;;;;1497373;39;20427;-64
2021/05/28 03:21:39;;;;;;;4.78;3.30;;;;;;;;;;1497338;39;20074;-63
2021/05/28 03:22:40;;;;;;;4.18;3.53;;;;;;;;;;1497614;39;20034;-64
2021/05/28 03:23:41;;;;;;;4.90;3.40;;;;;;;;;;1497602;39;20034;-64
2021/05/28 03:24:43;;;;;;;4.15;3.10;;;;;;;;;;1497609;39;20298;-64
2021/05/28 03:25:45;;;;;;;8.15;4.30;;;;;;;;;;1497580;39;20097;-64
2021/05/28 03:26:46;;;;;;;4.22;3.45;;;;;;;;;;1497324;39;20035;-64
2021/05/28 03:27:49;;;;;;;4.57;3.58;;;;;;;;;;1497566;39;20031;-65
2021/05/28 03:28:50;;;;;;;4.82;3.75;;;;;;;;;;1497359;39;20465;-64
2021/05/28 03:29:51;;;;;;;4.53;3.30;;;;;;;;;;1497516;39;20108;-64
2021/05/28 03:30:52;;;;;;;4.63;3.25;;;;;;;;;;1497411;39;20276;-64
2021/05/28 03:31:54;;;;;;;5.78;3.42;;;;;;;;;;1497531;39;20042;-64
2021/05/28 03:32:54;;;;;;;3.78;3.15;;;;;;;;;;1497579;39;20034;-64
2021/05/28 03:33:56;;;;;;;7.18;3.97;;;;;;;;;;1497333;39;20395;-64
2021/05/28 03:34:57;;;;;;;4.78;3.30;;;;;;;;;;1497373;39;20059;-64
2021/05/28 03:35:58;;;;;;;5.32;3.30;;;;;;;;;;1497552;39;20027;-64
2021/05/28 03:37:00;;;;;;;5.20;3.45;;;;;;;;;;1497375;39;20491;-64
2021/05/28 03:38:01;;;;;;;4.30;3.13;;;;;;;;;;1497295;39;20272;-64
2021/05/28 03:39:04;;;;;;;3.85;3.13;;;;;;;;;;1497381;39;20391;-64
2021/05/28 03:40:07;;;;;;;5.35;3.28;;;;;;;;;;1497485;39;20035;-64
2021/05/28 03:41:09;;;;;;;4.40;2.97;;;;;;;;;;1497535;39;20034;-64
2021/05/28 03:42:10;;;;;;;5.07;3.60;;;;;;;;;;1497377;39;20375;-64
2021/05/28 03:43:11;;;;;;;5.10;3.33;;;;;;;;;;1497373;39;20036;-64
2021/05/28 03:44:12;;;;;;;6.15;3.40;;;;;;;;;;1497310;39;20027;-64
2021/05/28 03:45:14;;;;;;;4.30;2.92;;;;;;;;;;1497308;39;20112;-64
2021/05/28 03:46:15;;;;;;;4.47;3.40;;;;;;;;;;1497488;39;20096;-64
2021/05/28 03:47:17;;;;;;;4.72;3.45;;;;;;;;;;1497315;39;20127;-63
2021/05/28 03:48:18;;;;;;;7.88;3.45;;;;;;;;;;1497436;39;20030;-64
2021/05/28 03:49:20;;;;;;;5.35;3.70;;;;;;;;;;1497343;39;20063;-64
2021/05/28 03:50:21;;;;;;;4.72;3.47;;;;;;;;;;1497502;39;20039;-64
2021/05/28 03:51:22;;;;;;;4.80;3.33;;;;;;;;;;1497349;39;20032;-65
2021/05/28 03:52:23;;;;;;;4.82;3.13;;;;;;;;;;1496841;39;20164;-64
2021/05/28 03:53:24;;;;;;;4.65;3.38;;;;;;;;;;1497028;39;20036;-64
2021/05/28 03:54:25;;;;;;;4.72;3.40;;;;;;;;;;1497500;39;20112;-64
2021/05/28 03:55:27;;;;;;;3.80;3.10;;;;;;;;;;1497431;39;20039;-64
2021/05/28 03:56:28;;;;;;;4.00;3.50;;;;;;;;;;1497296;39;20034;-64
2021/05/28 03:57:29;;;;;;;6.10;3.60;;;;;;;;;;1497367;39;20027;-64
2021/05/28 03:58:30;;;;;;;4.20;3.53;;;;;;;;;;1497478;39;20027;-64
2021/05/28 03:59:32;;;;;;;4.55;3.35;;;;;;;;;;1497591;39;20050;-64
2021/05/28 04:00:33;;;;;;;4.30;3.55;;;;;;;;;;1497567;39;20032;-64
2021/05/28 04:01:34;;;;;;;5.47;4.00;;;;;;;;;;1497471;39;20031;-63
2021/05/28 04:02:35;;;;;;;4.53;3.38;;;;;;;;;;1497398;39;20038;-64
2021/05/28 04:03:36;;;;;;;3.97;3.20;;;;;;;;;;1497269;39;20027;-64
2021/05/28 04:04:37;;;;;;;4.40;3.30;;;;;;;;;;1497550;39;20031;-64
2021/05/28 04:05:38;;;;;;;4.93;3.40;;;;;;;;;;1497396;39;20401;-64
2021/05/28 04:06:39;;;;;;;5.28;3.55;;;;;;;;;;1497258;39;20331;-64
2021/05/28 04:07:40;;;;;;;4.90;3.65;;;;;;;;;;1497251;39;20032;-64
2021/05/28 04:08:41;;;;;;;5.00;3.60;;;;;;;;;;1497402;39;20031;-64
2021/05/28 04:09:42;;;;;;;5.07;3.65;;;;;;;;;;1497313;39;20028;-64
2021/05/28 04:10:43;;;;;;;5.03;3.80;;;;;;;;;;1497527;39;20023;-64
2021/05/28 04:11:46;;;;;;;6.65;3.60;;;;;;;;;;1497173;39;20128;-64
2021/05/28 04:12:46;;;;;;;5.70;3.65;;;;;;;;;;1497219;39;20034;-64
2021/05/28 04:13:48;;;;;;;5.82;3.80;;;;;;;;;;1497280;39;20034;-64
2021/05/28 04:14:49;;;;;;;5.95;3.70;;;;;;;;;;1497517;39;20032;-64
2021/05/28 04:15:50;;;;;;;6.65;4.10;;;;;;;;;;1497237;39;20070;-64
2021/05/28 04:16:51;;;;;;;4.45;3.70;;;;;;;;;;1497237;39;20036;-64
2021/05/28 04:17:52;;;;;;;4.57;3.75;;;;;;;;;;1497251;39;20039;-63
2021/05/28 04:18:53;;;;;;;4.70;3.47;;;;;;;;;;1497264;39;20027;-64
2021/05/28 04:19:55;;;;;;;5.93;3.72;;;;;;;;;;1497219;39;20035;-64
2021/05/28 04:20:55;;;;;;;5.18;3.85;;;;;;;;;;1497309;39;20035;-64
2021/05/28 04:21:57;;;;;;;6.38;4.15;;;;;;;;;;1497307;39;20387;-64
2021/05/28 04:22:58;;;;;;;6.05;3.78;;;;;;;;;;1497514;39;20081;-65
2021/05/28 04:24:00;;;;;;;5.03;3.85;;;;;;;;;;1496813;39;20032;-65
2021/05/28 04:25:01;;;;;;;6.90;3.85;;;;;;;;;;1496941;39;20035;-65
2021/05/28 04:26:03;;;;;;;6.15;3.92;;;;;;;;;;1497254;39;20360;-65
2021/05/28 04:27:05;;;;;;;5.10;3.67;;;;;;;;;;1497146;39;20272;-65
2021/05/28 04:28:07;;;;;;;4.72;3.97;;;;;;;;;;1497489;39;20041;-65
2021/05/28 04:29:07;;;;;;;4.50;3.28;;;;;;;;;;1497436;39;20023;-65
2021/05/28 04:30:09;;;;;;;5.10;3.45;;;;;;;;;;1497203;39;20034;-65
2021/05/28 04:31:10;;;;;;;4.97;3.33;;;;;;;;;;1497257;39;20027;-65
2021/05/28 04:32:12;;;;;;;5.35;3.70;;;;;;;;;;1497189;39;20063;-65
2021/05/28 04:33:13;;;;;;;4.65;3.78;;;;;;;;;;1497415;39;20031;-65
2021/05/28 04:34:14;;;;;;;6.25;4.03;;;;;;;;;;1497259;39;20148;-65
2021/05/28 04:35:15;;;;;;;4.75;3.90;;;;;;;;;;1497391;39;20027;-65
2021/05/28 04:36:16;;;;;;;4.57;3.90;;;;;;;;;;1497402;39;20038;-65
2021/05/28 04:37:17;;;;;;;4.80;3.67;;;;;;;;;;1497276;39;20289;-65
2021/05/28 04:38:18;;;;;;;6.35;3.80;;;;;;;;;;1497178;39;20039;-65
2021/05/28 04:39:19;;;;;;;7.60;3.97;;;;;;;;;;1497165;39;20028;-64
2021/05/28 04:40:20;;;;;;;7.10;4.57;;;;;;;;;;1497362;39;20031;-64
2021/05/28 04:41:21;;;;;;;7.53;4.18;;;;;;;;;;1497251;39;20034;-65
2021/05/28 04:42:23;;;;;;;5.47;4.45;;;;;;;;;;1496720;39;20042;-64
2021/05/28 04:43:24;;;;;;;5.63;4.03;;;;;;;;;;1496848;39;20032;-65
2021/05/28 04:44:26;;;;;;;5.20;3.90;;;;;;;;;;1497393;39;20032;-65
2021/05/28 04:45:27;;;;;;;4.22;3.63;;;;;;;;;;1496634;39;20039;-65
2021/05/28 04:46:28;;;;;;;5.43;3.83;;;;;;;;;;1496794;39;20023;-65
2021/05/28 04:47:29;;;;;;;4.45;3.53;;;;;;;;;;1496621;39;20023;-65
2021/05/28 04:48:31;;;;;;;6.10;4.55;;;;;;;;;;1496641;39;20464;-65
2021/05/28 04:49:31;;;;;;;5.15;4.00;;;;;;;;;;1497346;39;20023;-65
2021/05/28 04:50:36;;;;;;;4.10;3.63;;;;;;;;;;1497117;39;20049;-65
2021/05/28 04:51:37;;;;;;;6.38;4.22;;;;;;;;;;1497085;39;20038;-64
2021/05/28 04:52:38;;;;;;;5.95;4.50;;;;;;;;;;1497174;39;20027;-65
2021/05/28 04:53:39;;;;;;;6.03;3.92;;;;;;;;;;1497124;39;20299;-65
2021/05/28 04:54:40;;;;;;;5.93;4.43;;;;;;;;;;1497306;39;20028;-65
2021/05/28 04:55:42;;;;;;;5.10;3.80;;;;;;;;;;1497137;39;20283;-65
2021/05/28 04:56:42;;;;;;;5.03;4.15;;;;;;;;;;1497310;39;20039;-65
2021/05/28 04:57:45;;;;;;;5.45;3.95;;;;;;;;;;1497344;39;20027;-65
2021/05/28 04:58:45;;;;;;;5.20;4.03;;;;;;;;;;1497339;39;20027;-65
2021/05/28 04:59:47;;;;;;;5.47;3.97;;;;;;;;;;1497306;39;20034;-65
2021/05/28 05:00:49;;;;;;;5.55;3.75;;;;;;;;;;1497119;39;20019;-65
2021/05/28 05:01:51;;;;;;;7.00;4.25;;;;;;;;;;1497656;39;20027;-61
2021/05/28 05:02:52;;;;;;;4.75;4.13;;;;;;;;;;1497087;39;20027;-59
2021/05/28 05:03:54;;;;;;;5.85;4.50;;;;;;;;;;1497135;39;20068;-60
2021/05/28 05:04:54;;;;;;;5.53;4.57;;;;;;;;;;1497302;39;20108;-59
2021/05/28 05:05:56;;;;;;;6.75;4.57;;;;;;;;;;1497106;39;20047;-60
2021/05/28 05:06:57;;;;;;;6.65;4.90;;;;;;;;;;1497080;39;20092;-60
2021/05/28 05:07:58;;;;;;;8.00;4.45;;;;;;;;;;1497287;39;20035;-60
2021/05/28 05:08:59;;;;;;;7.43;4.70;;;;;;;;;;1497305;39;20031;-60
2021/05/28 05:10:00;;;;;;;6.13;4.70;;;;;;;;;;1497343;39;20063;-60
2021/05/28 05:11:01;;;;;;;7.07;4.68;;;;;;;;;;1497121;39;20304;-59
2021/05/28 05:12:03;;;;;;;9.05;5.65;;;;;;;;;;1497017;39;20410;-59
2021/05/28 05:13:11;;;;;;;9.18;5.45;;;;;;;;;;1497075;39;20032;-59
2021/05/28 05:14:12;;;;;;;5.00;4.35;;;;;;;;;;1497120;39;20031;-59
2021/05/28 05:15:14;;;;;;;6.75;5.07;;;;;;;;;;1497025;39;20028;-58
2021/05/28 05:16:15;;;;;;;8.77;5.22;;;;;;;;;;1496841;39;20306;-60
2021/05/28 05:17:16;;;;;;;7.25;5.15;;;;;;;;;;1497108;39;20023;-60
2021/05/28 05:18:17;;;;;;;6.88;5.35;;;;;;;;;;1497291;39;20031;-60
2021/05/28 05:19:18;;;;;;;9.07;5.38;;;;;;;;;;1497280;39;20031;-59
2021/05/28 05:20:19;;;;;;;7.15;5.63;;;;;;;;;;1497326;39;20028;-60
2021/05/28 05:21:20;;;;;;;6.97;5.43;;;;;;;;;;1497111;39;20481;-60
2021/05/28 05:22:21;;;;;;;7.30;5.47;;;;;;;;;;1497209;39;20035;-59
2021/05/28 05:23:23;;;;;;;7.70;5.78;;;;;;;;;;1497048;39;20327;-60
2021/05/28 05:24:23;;;;;;;7.03;5.50;;;;;;;;;;1497012;39;20027;-60
2021/05/28 05:25:25;;;;;;;8.10;5.88;;;;;;;;;;1497353;39;20034;-59
2021/05/28 05:26:26;;;;;;;7.47;5.22;;;;;;;;;;1497077;39;20161;-60
2021/05/28 05:27:27;;;;;;;7.30;5.00;;;;;;;;;;1497039;39;20477;-60
2021/05/28 05:28:28;;;;;;;6.47;5.05;;;;;;;;;;1496568;39;20411;-59
2021/05/28 05:29:30;;;;;;;7.38;5.03;;;;;;;;;;1496593;39;20031;-59
2021/05/28 05:30:31;;;;;;;7.82;5.60;;;;;;;;;;1497223;39;20030;-60
2021/05/28 05:31:32;;;;;;;8.05;5.65;;;;;;;;;;1497067;39;20302;-60
2021/05/28 05:32:33;;;;;;;6.07;4.88;;;;;;;;;;1497208;39;20042;-60
2021/05/28 05:33:34;;;;;;;6.38;4.72;;;;;;;;;;1497261;39;20039;-59
2021/05/28 05:34:35;;;;;;;8.52;5.10;;;;;;;;;;1497226;39;20024;-59
2021/05/28 05:35:36;;;;;;;6.68;5.15;;;;;;;;;;1497269;39;20023;-59
2021/05/28 05:36:40;;;;;;;8.50;4.97;;;;;;;;;;1497028;39;20031;-59
2021/05/28 05:37:41;;;;;;;7.47;5.20;;;;;;;;;;1497048;39;20287;-59
2021/05/28 05:38:42;;;;;;;6.13;4.80;;;;;;;;;;1497038;39;20032;-57
2021/05/28 05:39:43;;;;;;;7.32;5.03;;;;;;;;;;1497213;39;20116;-60
2021/05/28 05:40:44;;;;;;;6.55;4.72;;;;;;;;;;1497216;39;20031;-60
2021/05/28 05:41:46;;;;;;;6.90;4.95;;;;;;;;;;1497073;39;20031;-60
2021/05/28 05:42:47;;;;;;;6.10;4.68;;;;;;;;;;1497012;39;20413;-60
2021/05/28 05:43:49;;;;;;;6.13;4.50;;;;;;;;;;1497037;39;20034;-60
2021/05/28 05:44:50;;;;;;;5.80;4.38;;;;;;;;;;1497200;39;20034;-60
2021/05/28 05:45:51;;;;;;;6.75;4.85;;;;;;;;;;1497206;39;20383;-59
2021/05/28 05:46:52;;;;;;;9.20;4.85;;;;;;;;;;1496919;39;20031;-59
2021/05/28 05:47:53;;;;;;;5.63;4.53;;;;;;;;;;1497183;39;20032;-59
2021/05/28 05:48:54;;;;;;;5.53;4.20;;;;;;;;;;1497003;39;20379;-59
2021/05/28 05:49:55;;;;;;;6.18;4.57;;;;;;;;;;1497188;39;20038;-59
2021/05/28 05:50:56;;;;;;;7.10;4.72;;;;;;;;;;1497058;39;20127;-61
2021/05/28 05:51:57;;;;;;;6.45;4.70;;;;;;;;;;1496944;39;20047;-60
2021/05/28 05:52:59;;;;;;;7.55;5.13;;;;;;;;;;1496964;39;20289;-59
2021/05/28 05:54:00;;;;;;;7.10;4.57;;;;;;;;;;1497244;39;20079;-59
2021/05/28 05:55:01;;;;;;;6.30;4.90;;;;;;;;;;1496999;39;20037;-60
2021/05/28 05:56:02;;;;;;;5.25;4.53;;;;;;;;;;1497143;39;20031;-61
2021/05/28 05:57:03;;;;;;;7.75;4.70;;;;;;;;;;1497125;39;20027;-60
2021/05/28 05:58:05;;;;;;;5.97;4.88;;;;;;;;;;1497091;39;20034;-60
2021/05/28 05:59:06;;;;;;;6.55;4.47;;;;;;;;;;1496944;39;20039;-60
2021/05/28 06:00:09;;;;;;;6.18;4.70;;;;;;;;;;1497206;39;20039;-60
2021/05/28 06:01:10;;;;;;;6.10;4.40;;;;;;;;;;1496958;39;20363;-59
2021/05/28 06:02:11;;;;;;;5.00;3.97;;;;;;;;;;1496943;39;20035;-59
2021/05/28 06:03:12;;;;;;;5.75;4.43;;;;;;;;;;1497243;39;20043;-59
2021/05/28 06:04:13;;;;;;;6.03;4.55;;;;;;;;;;1497232;39;20030;-58
2021/05/28 06:05:14;;;;;;;5.78;4.40;;;;;;;;;;1497013;39;20398;-60
2021/05/28 06:06:16;;;;;;;6.07;4.03;;;;;;;;;;1497216;39;20059;-59
2021/05/28 06:07:16;;;;;;;6.55;4.15;;;;;;;;;;1497095;39;20034;-59
2021/05/28 06:08:18;;;;;;;6.80;4.30;;;;;;;;;;1496956;39;20028;-59